sensor_id;sensor_type;location;lat;lon;timestamp;P1;durP1;ratioP1;P2;durP2;ratioP2
61003;SDS011;46889;37.310;13.582;2022-12-07T00:01:26;21.45;;;3.85;;
61003;SDS011;46889;37.310;13.582;2022-12-07T00:03:54;21.83;;;3.80;;
61003;SDS011;46889;37.310;13.582;2022-12-07T00:06:30;25.20;;;4.03;;
61003;SDS011;46889;37.310;13.582;2022-12-07T00:09:01;13.80;;;3.55;;
61003;SDS011;46889;37.310;13.582;2022-12-07T00:11:29;24.95;;;4.10;;
61003;SDS011;46889;37.310;13.582;2022-12-07T00:14:01;28.45;;;3.97;;
61003;SDS011;46889;37.310;13.582;2022-12-07T00:16:31;21.67;;;3.78;;
61003;SDS011;46889;37.310;13.582;2022-12-07T00:18:57;25.63;;;4.60;;
61003;SDS011;46889;37.310;13.582;2022-12-07T00:21:26;28.63;;;4.75;;
61003;SDS011;46889;37.310;13.582;2022-12-07T00:23:57;26.45;;;4.25;;
61003;SDS011;46889;37.310;13.582;2022-12-07T00:26:31;23.88;;;4.18;;
61003;SDS011;46889;37.310;13.582;2022-12-07T00:29:03;29.83;;;5.32;;
61003;SDS011;46889;37.310;13.582;2022-12-07T00:31:33;29.60;;;4.10;;
61003;SDS011;46889;37.310;13.582;2022-12-07T00:34:05;32.17;;;4.57;;
61003;SDS011;46889;37.310;13.582;2022-12-07T00:36:32;20.83;;;3.55;;
61003;SDS011;46889;37.310;13.582;2022-12-07T00:39:00;28.73;;;4.60;;
61003;SDS011;46889;37.310;13.582;2022-12-07T00:43:55;33.88;;;4.43;;
61003;SDS011;46889;37.310;13.582;2022-12-07T00:46:23;14.70;;;4.38;;
61003;SDS011;46889;37.310;13.582;2022-12-07T00:48:51;27.25;;;4.03;;
61003;SDS011;46889;37.310;13.582;2022-12-07T00:51:20;19.80;;;3.85;;
61003;SDS011;46889;37.310;13.582;2022-12-07T00:53:48;26.85;;;4.90;;
61003;SDS011;46889;37.310;13.582;2022-12-07T00:56:15;24.80;;;4.88;;
61003;SDS011;46889;37.310;13.582;2022-12-07T00:58:53;23.67;;;4.00;;
61003;SDS011;46889;37.310;13.582;2022-12-07T01:01:22;27.52;;;5.00;;
61003;SDS011;46889;37.310;13.582;2022-12-07T01:03:51;27.08;;;4.82;;
61003;SDS011;46889;37.310;13.582;2022-12-07T01:06:18;24.88;;;4.28;;
61003;SDS011;46889;37.310;13.582;2022-12-07T01:08:47;28.10;;;4.82;;
61003;SDS011;46889;37.310;13.582;2022-12-07T01:11:14;28.83;;;4.20;;
61003;SDS011;46889;37.310;13.582;2022-12-07T01:13:45;33.15;;;4.72;;
61003;SDS011;46889;37.310;13.582;2022-12-07T01:16:13;18.05;;;3.80;;
61003;SDS011;46889;37.310;13.582;2022-12-07T01:18:41;26.70;;;4.28;;
61003;SDS011;46889;37.310;13.582;2022-12-07T01:21:11;31.08;;;4.50;;
61003;SDS011;46889;37.310;13.582;2022-12-07T01:23:41;27.02;;;4.57;;
61003;SDS011;46889;37.310;13.582;2022-12-07T01:26:09;22.27;;;4.53;;
61003;SDS011;46889;37.310;13.582;2022-12-07T01:28:38;26.65;;;4.10;;
61003;SDS011;46889;37.310;13.582;2022-12-07T01:31:07;25.42;;;4.30;;
61003;SDS011;46889;37.310;13.582;2022-12-07T01:33:40;23.92;;;4.65;;
61003;SDS011;46889;37.310;13.582;2022-12-07T01:36:12;23.85;;;4.22;;
61003;SDS011;46889;37.310;13.582;2022-12-07T01:38:40;35.53;;;5.32;;
61003;SDS011;46889;37.310;13.582;2022-12-07T01:41:07;28.45;;;4.85;;
61003;SDS011;46889;37.310;13.582;2022-12-07T01:43:34;32.20;;;4.80;;
61003;SDS011;46889;37.310;13.582;2022-12-07T01:46:03;34.25;;;5.53;;
61003;SDS011;46889;37.310;13.582;2022-12-07T01:48:32;24.80;;;4.32;;
61003;SDS011;46889;37.310;13.582;2022-12-07T01:51:04;21.27;;;5.20;;
61003;SDS011;46889;37.310;13.582;2022-12-07T01:53:37;29.88;;;4.90;;
61003;SDS011;46889;37.310;13.582;2022-12-07T01:56:06;33.92;;;5.07;;
61003;SDS011;46889;37.310;13.582;2022-12-07T01:58:37;29.85;;;6.25;;
61003;SDS011;46889;37.310;13.582;2022-12-07T02:01:06;35.08;;;5.03;;
61003;SDS011;46889;37.310;13.582;2022-12-07T02:03:40;27.33;;;5.00;;
61003;SDS011;46889;37.310;13.582;2022-12-07T02:06:09;31.48;;;6.00;;
61003;SDS011;46889;37.310;13.582;2022-12-07T02:08:39;33.33;;;6.68;;
61003;SDS011;46889;37.310;13.582;2022-12-07T02:11:08;26.92;;;5.07;;
61003;SDS011;46889;37.310;13.582;2022-12-07T02:13:36;29.13;;;5.63;;
61003;SDS011;46889;37.310;13.582;2022-12-07T02:18:48;33.83;;;5.95;;
61003;SDS011;46889;37.310;13.582;2022-12-07T02:40:38;30.15;;;5.47;;
61003;SDS011;46889;37.310;13.582;2022-12-07T02:43:20;21.50;;;5.65;;
61003;SDS011;46889;37.310;13.582;2022-12-07T02:45:59;24.83;;;5.75;;
61003;SDS011;46889;37.310;13.582;2022-12-07T02:48:29;27.20;;;4.80;;
61003;SDS011;46889;37.310;13.582;2022-12-07T02:51:00;33.70;;;5.85;;
61003;SDS011;46889;37.310;13.582;2022-12-07T02:56:04;39.28;;;5.90;;
61003;SDS011;46889;37.310;13.582;2022-12-07T03:04:33;29.13;;;5.10;;
61003;SDS011;46889;37.310;13.582;2022-12-07T03:07:18;32.40;;;5.43;;
61003;SDS011;46889;37.310;13.582;2022-12-07T03:12:49;31.58;;;5.55;;
61003;SDS011;46889;37.310;13.582;2022-12-07T03:18:24;37.67;;;5.43;;
61003;SDS011;46889;37.310;13.582;2022-12-07T03:20:53;27.92;;;5.80;;
61003;SDS011;46889;37.310;13.582;2022-12-07T03:23:24;30.73;;;5.35;;
61003;SDS011;46889;37.310;13.582;2022-12-07T03:25:55;32.33;;;4.75;;
61003;SDS011;46889;37.310;13.582;2022-12-07T03:28:31;21.27;;;4.90;;
61003;SDS011;46889;37.310;13.582;2022-12-07T03:33:50;32.25;;;5.50;;
61003;SDS011;46889;37.310;13.582;2022-12-07T03:36:20;40.15;;;6.15;;
61003;SDS011;46889;37.310;13.582;2022-12-07T03:39:08;33.97;;;5.82;;
61003;SDS011;46889;37.310;13.582;2022-12-07T03:42:01;15.18;;;4.28;;
61003;SDS011;46889;37.310;13.582;2022-12-07T03:44:30;24.02;;;5.35;;
61003;SDS011;46889;37.310;13.582;2022-12-07T03:47:16;33.75;;;5.90;;
61003;SDS011;46889;37.310;13.582;2022-12-07T03:55:59;34.72;;;5.90;;
61003;SDS011;46889;37.310;13.582;2022-12-07T03:58:27;19.90;;;4.57;;
61003;SDS011;46889;37.310;13.582;2022-12-07T04:00:55;36.83;;;5.57;;
61003;SDS011;46889;37.310;13.582;2022-12-07T04:03:22;28.15;;;5.35;;
61003;SDS011;46889;37.310;13.582;2022-12-07T04:05:48;34.67;;;6.57;;
61003;SDS011;46889;37.310;13.582;2022-12-07T04:08:15;26.20;;;5.00;;
61003;SDS011;46889;37.310;13.582;2022-12-07T04:10:41;27.42;;;5.10;;
61003;SDS011;46889;37.310;13.582;2022-12-07T04:13:07;30.63;;;4.87;;
61003;SDS011;46889;37.310;13.582;2022-12-07T04:15:33;27.37;;;5.30;;
61003;SDS011;46889;37.310;13.582;2022-12-07T04:17:59;27.30;;;4.67;;
61003;SDS011;46889;37.310;13.582;2022-12-07T04:20:26;25.38;;;4.95;;
61003;SDS011;46889;37.310;13.582;2022-12-07T04:22:53;26.15;;;5.18;;
61003;SDS011;46889;37.310;13.582;2022-12-07T04:27:46;19.65;;;4.07;;
61003;SDS011;46889;37.310;13.582;2022-12-07T04:32:40;25.92;;;5.10;;
61003;SDS011;46889;37.310;13.582;2022-12-07T04:35:07;24.55;;;4.78;;
61003;SDS011;46889;37.310;13.582;2022-12-07T04:37:35;28.05;;;4.93;;
61003;SDS011;46889;37.310;13.582;2022-12-07T04:40:01;23.03;;;4.67;;
61003;SDS011;46889;37.310;13.582;2022-12-07T04:42:28;21.27;;;4.07;;
61003;SDS011;46889;37.310;13.582;2022-12-07T04:44:54;30.30;;;4.90;;
61003;SDS011;46889;37.310;13.582;2022-12-07T04:47:20;26.33;;;5.50;;
61003;SDS011;46889;37.310;13.582;2022-12-07T04:49:46;19.90;;;4.40;;
61003;SDS011;46889;37.310;13.582;2022-12-07T04:52:13;19.33;;;3.95;;
61003;SDS011;46889;37.310;13.582;2022-12-07T04:54:41;30.50;;;4.57;;
61003;SDS011;46889;37.310;13.582;2022-12-07T04:57:08;22.55;;;4.93;;
61003;SDS011;46889;37.310;13.582;2022-12-07T04:59:39;20.33;;;4.43;;
61003;SDS011;46889;37.310;13.582;2022-12-07T05:02:06;21.73;;;4.40;;
61003;SDS011;46889;37.310;13.582;2022-12-07T05:04:33;23.58;;;4.38;;
61003;SDS011;46889;37.310;13.582;2022-12-07T05:06:59;20.87;;;4.43;;
61003;SDS011;46889;37.310;13.582;2022-12-07T05:09:25;16.15;;;3.75;;
61003;SDS011;46889;37.310;13.582;2022-12-07T05:11:54;24.73;;;4.65;;
61003;SDS011;46889;37.310;13.582;2022-12-07T05:14:20;20.07;;;4.13;;
61003;SDS011;46889;37.310;13.582;2022-12-07T05:16:50;19.65;;;4.32;;
61003;SDS011;46889;37.310;13.582;2022-12-07T05:21:43;30.92;;;4.13;;
61003;SDS011;46889;37.310;13.582;2022-12-07T05:24:10;21.23;;;4.30;;
61003;SDS011;46889;37.310;13.582;2022-12-07T05:26:38;29.15;;;5.03;;
61003;SDS011;46889;37.310;13.582;2022-12-07T05:29:05;22.88;;;4.70;;
61003;SDS011;46889;37.310;13.582;2022-12-07T05:31:33;16.58;;;3.78;;
61003;SDS011;46889;37.310;13.582;2022-12-07T05:33:59;24.20;;;4.13;;
61003;SDS011;46889;37.310;13.582;2022-12-07T05:36:25;29.77;;;4.90;;
61003;SDS011;46889;37.310;13.582;2022-12-07T05:38:53;24.75;;;4.70;;
61003;SDS011;46889;37.310;13.582;2022-12-07T05:41:20;22.58;;;4.65;;
61003;SDS011;46889;37.310;13.582;2022-12-07T05:44:23;20.25;;;3.97;;
61003;SDS011;46889;37.310;13.582;2022-12-07T05:46:49;21.35;;;4.53;;
61003;SDS011;46889;37.310;13.582;2022-12-07T05:49:15;22.73;;;4.17;;
61003;SDS011;46889;37.310;13.582;2022-12-07T05:51:43;25.33;;;5.53;;
61003;SDS011;46889;37.310;13.582;2022-12-07T05:54:10;20.13;;;4.10;;
61003;SDS011;46889;37.310;13.582;2022-12-07T05:56:36;28.60;;;4.60;;
61003;SDS011;46889;37.310;13.582;2022-12-07T05:59:03;22.20;;;4.03;;
61003;SDS011;46889;37.310;13.582;2022-12-07T06:01:48;17.95;;;3.92;;
61003;SDS011;46889;37.310;13.582;2022-12-07T06:04:18;19.42;;;3.63;;
61003;SDS011;46889;37.310;13.582;2022-12-07T06:06:46;24.30;;;4.15;;
61003;SDS011;46889;37.310;13.582;2022-12-07T06:09:25;26.00;;;4.10;;
61003;SDS011;46889;37.310;13.582;2022-12-07T06:12:09;17.90;;;4.63;;
61003;SDS011;46889;37.310;13.582;2022-12-07T06:14:55;26.58;;;4.50;;
61003;SDS011;46889;37.310;13.582;2022-12-07T06:17:22;25.55;;;4.00;;
61003;SDS011;46889;37.310;13.582;2022-12-07T06:19:48;23.85;;;3.85;;
61003;SDS011;46889;37.310;13.582;2022-12-07T06:22:14;25.85;;;4.60;;
61003;SDS011;46889;37.310;13.582;2022-12-07T06:24:48;24.23;;;4.22;;
61003;SDS011;46889;37.310;13.582;2022-12-07T06:27:18;26.73;;;4.50;;
61003;SDS011;46889;37.310;13.582;2022-12-07T06:29:44;22.98;;;4.03;;
61003;SDS011;46889;37.310;13.582;2022-12-07T06:32:12;23.08;;;4.20;;
61003;SDS011;46889;37.310;13.582;2022-12-07T06:34:40;26.85;;;4.43;;
61003;SDS011;46889;37.310;13.582;2022-12-07T06:37:18;25.58;;;4.63;;
61003;SDS011;46889;37.310;13.582;2022-12-07T06:39:45;21.25;;;4.15;;
61003;SDS011;46889;37.310;13.582;2022-12-07T06:44:46;23.95;;;4.40;;
61003;SDS011;46889;37.310;13.582;2022-12-07T06:47:14;20.25;;;4.07;;
61003;SDS011;46889;37.310;13.582;2022-12-07T06:49:50;29.63;;;4.70;;
61003;SDS011;46889;37.310;13.582;2022-12-07T06:52:20;19.58;;;4.10;;
61003;SDS011;46889;37.310;13.582;2022-12-07T06:54:48;22.73;;;5.05;;
61003;SDS011;46889;37.310;13.582;2022-12-07T06:57:16;32.17;;;5.53;;
61003;SDS011;46889;37.310;13.582;2022-12-07T06:59:42;29.35;;;5.68;;
61003;SDS011;46889;37.310;13.582;2022-12-07T07:02:09;34.00;;;5.25;;
61003;SDS011;46889;37.310;13.582;2022-12-07T07:04:35;30.58;;;5.00;;
61003;SDS011;46889;37.310;13.582;2022-12-07T07:07:01;23.10;;;4.80;;
61003;SDS011;46889;37.310;13.582;2022-12-07T07:09:36;25.75;;;4.72;;
61003;SDS011;46889;37.310;13.582;2022-12-07T07:12:05;22.52;;;4.55;;
61003;SDS011;46889;37.310;13.582;2022-12-07T07:14:31;28.92;;;4.28;;
61003;SDS011;46889;37.310;13.582;2022-12-07T07:16:57;35.75;;;6.85;;
61003;SDS011;46889;37.310;13.582;2022-12-07T07:19:23;27.35;;;4.50;;
61003;SDS011;46889;37.310;13.582;2022-12-07T07:21:49;30.93;;;5.10;;
61003;SDS011;46889;37.310;13.582;2022-12-07T07:24:16;30.52;;;6.10;;
61003;SDS011;46889;37.310;13.582;2022-12-07T07:26:42;27.50;;;5.70;;
61003;SDS011;46889;37.310;13.582;2022-12-07T07:29:08;21.80;;;4.95;;
61003;SDS011;46889;37.310;13.582;2022-12-07T07:31:34;27.77;;;4.55;;
61003;SDS011;46889;37.310;13.582;2022-12-07T07:34:00;25.80;;;4.80;;
61003;SDS011;46889;37.310;13.582;2022-12-07T07:36:28;24.52;;;4.60;;
61003;SDS011;46889;37.310;13.582;2022-12-07T07:38:54;30.15;;;5.10;;
61003;SDS011;46889;37.310;13.582;2022-12-07T07:41:20;28.85;;;5.03;;
61003;SDS011;46889;37.310;13.582;2022-12-07T07:43:46;35.78;;;4.60;;
61003;SDS011;46889;37.310;13.582;2022-12-07T07:46:13;23.38;;;4.18;;
61003;SDS011;46889;37.310;13.582;2022-12-07T07:48:39;24.02;;;3.80;;
61003;SDS011;46889;37.310;13.582;2022-12-07T07:51:06;23.63;;;3.88;;
61003;SDS011;46889;37.310;13.582;2022-12-07T07:53:32;24.77;;;4.18;;
61003;SDS011;46889;37.310;13.582;2022-12-07T07:56:00;19.83;;;3.88;;
61003;SDS011;46889;37.310;13.582;2022-12-07T07:58:26;26.67;;;4.32;;
61003;SDS011;46889;37.310;13.582;2022-12-07T08:00:55;34.70;;;9.90;;
61003;SDS011;46889;37.310;13.582;2022-12-07T08:03:22;28.27;;;5.35;;
61003;SDS011;46889;37.310;13.582;2022-12-07T08:05:49;30.83;;;4.15;;
61003;SDS011;46889;37.310;13.582;2022-12-07T08:08:15;23.02;;;4.90;;
61003;SDS011;46889;37.310;13.582;2022-12-07T08:10:41;24.40;;;4.72;;
61003;SDS011;46889;37.310;13.582;2022-12-07T08:13:07;34.75;;;5.30;;
61003;SDS011;46889;37.310;13.582;2022-12-07T08:15:38;24.08;;;4.55;;
61003;SDS011;46889;37.310;13.582;2022-12-07T08:18:09;26.25;;;4.20;;
61003;SDS011;46889;37.310;13.582;2022-12-07T08:25:27;32.90;;;4.60;;
61003;SDS011;46889;37.310;13.582;2022-12-07T08:27:54;24.67;;;4.15;;
61003;SDS011;46889;37.310;13.582;2022-12-07T08:30:20;23.83;;;4.50;;
61003;SDS011;46889;37.310;13.582;2022-12-07T08:32:56;28.92;;;4.43;;
61003;SDS011;46889;37.310;13.582;2022-12-07T08:35:25;34.25;;;7.57;;
61003;SDS011;46889;37.310;13.582;2022-12-07T08:37:51;27.83;;;4.35;;
61003;SDS011;46889;37.310;13.582;2022-12-07T08:40:23;25.60;;;4.10;;
61003;SDS011;46889;37.310;13.582;2022-12-07T08:42:56;26.65;;;4.78;;
61003;SDS011;46889;37.310;13.582;2022-12-07T08:45:25;26.52;;;3.95;;
61003;SDS011;46889;37.310;13.582;2022-12-07T08:50:27;23.88;;;4.05;;
61003;SDS011;46889;37.310;13.582;2022-12-07T08:52:55;30.52;;;4.53;;
61003;SDS011;46889;37.310;13.582;2022-12-07T08:55:24;26.98;;;3.95;;
61003;SDS011;46889;37.310;13.582;2022-12-07T08:57:52;27.80;;;4.30;;
61003;SDS011;46889;37.310;13.582;2022-12-07T09:00:19;26.92;;;4.55;;
61003;SDS011;46889;37.310;13.582;2022-12-07T09:02:46;20.40;;;5.03;;
61003;SDS011;46889;37.310;13.582;2022-12-07T09:05:13;26.50;;;4.90;;
61003;SDS011;46889;37.310;13.582;2022-12-07T09:07:43;34.42;;;4.88;;
61003;SDS011;46889;37.310;13.582;2022-12-07T09:13:24;28.35;;;4.40;;
61003;SDS011;46889;37.310;13.582;2022-12-07T09:15:51;27.70;;;4.97;;
61003;SDS011;46889;37.310;13.582;2022-12-07T09:18:18;28.90;;;4.00;;
61003;SDS011;46889;37.310;13.582;2022-12-07T09:20:44;26.45;;;4.32;;
61003;SDS011;46889;37.310;13.582;2022-12-07T09:23:10;25.50;;;3.85;;
61003;SDS011;46889;37.310;13.582;2022-12-07T09:25:39;27.20;;;4.47;;
61003;SDS011;46889;37.310;13.582;2022-12-07T09:28:05;31.13;;;5.45;;
61003;SDS011;46889;37.310;13.582;2022-12-07T09:30:31;24.95;;;4.35;;
61003;SDS011;46889;37.310;13.582;2022-12-07T09:32:57;24.95;;;4.30;;
61003;SDS011;46889;37.310;13.582;2022-12-07T09:35:24;26.25;;;4.35;;
61003;SDS011;46889;37.310;13.582;2022-12-07T09:37:50;24.63;;;4.03;;
61003;SDS011;46889;37.310;13.582;2022-12-07T09:40:19;25.02;;;4.20;;
61003;SDS011;46889;37.310;13.582;2022-12-07T09:42:49;30.92;;;4.50;;
61003;SDS011;46889;37.310;13.582;2022-12-07T09:45:20;33.70;;;4.72;;
61003;SDS011;46889;37.310;13.582;2022-12-07T09:47:57;29.95;;;4.50;;
61003;SDS011;46889;37.310;13.582;2022-12-07T09:50:25;28.55;;;4.30;;
61003;SDS011;46889;37.310;13.582;2022-12-07T09:53:08;21.38;;;4.25;;
61003;SDS011;46889;37.310;13.582;2022-12-07T09:55:38;33.15;;;4.82;;
61003;SDS011;46889;37.310;13.582;2022-12-07T09:58:19;25.10;;;4.07;;
61003;SDS011;46889;37.310;13.582;2022-12-07T10:00:58;30.95;;;4.15;;
61003;SDS011;46889;37.310;13.582;2022-12-07T10:03:30;29.65;;;5.15;;
61003;SDS011;46889;37.310;13.582;2022-12-07T10:06:00;35.00;;;5.00;;
61003;SDS011;46889;37.310;13.582;2022-12-07T10:08:28;30.70;;;4.20;;
61003;SDS011;46889;37.310;13.582;2022-12-07T10:10:55;32.15;;;4.63;;
61003;SDS011;46889;37.310;13.582;2022-12-07T10:13:36;32.58;;;5.22;;
61003;SDS011;46889;37.310;13.582;2022-12-07T10:22:25;31.75;;;4.38;;
61003;SDS011;46889;37.310;13.582;2022-12-07T10:24:50;32.53;;;4.80;;
61003;SDS011;46889;37.310;13.582;2022-12-07T10:27:18;24.83;;;4.05;;
61003;SDS011;46889;37.310;13.582;2022-12-07T10:29:52;26.92;;;4.22;;
61003;SDS011;46889;37.310;13.582;2022-12-07T10:34:45;29.50;;;4.20;;
61003;SDS011;46889;37.310;13.582;2022-12-07T10:39:53;33.72;;;4.50;;
61003;SDS011;46889;37.310;13.582;2022-12-07T10:42:31;28.55;;;4.60;;
61003;SDS011;46889;37.310;13.582;2022-12-07T10:45:15;36.60;;;4.85;;
61003;SDS011;46889;37.310;13.582;2022-12-07T10:47:47;26.35;;;4.43;;
61003;SDS011;46889;37.310;13.582;2022-12-07T10:56:19;26.13;;;4.20;;
61003;SDS011;46889;37.310;13.582;2022-12-07T11:11:35;25.10;;;4.05;;
61003;SDS011;46889;37.310;13.582;2022-12-07T11:23:03;29.50;;;4.72;;
61003;SDS011;46889;37.310;13.582;2022-12-07T11:34:16;30.73;;;4.40;;
61003;SDS011;46889;37.310;13.582;2022-12-07T11:37:41;29.05;;;4.65;;
61003;SDS011;46889;37.310;13.582;2022-12-07T11:40:28;35.10;;;4.75;;
61003;SDS011;46889;37.310;13.582;2022-12-07T11:43:13;31.70;;;4.90;;
61003;SDS011;46889;37.310;13.582;2022-12-07T11:46:08;31.60;;;5.60;;
61003;SDS011;46889;37.310;13.582;2022-12-07T11:51:18;32.42;;;5.57;;
61003;SDS011;46889;37.310;13.582;2022-12-07T11:53:54;29.65;;;5.55;;
61003;SDS011;46889;37.310;13.582;2022-12-07T11:56:28;32.35;;;4.85;;
61003;SDS011;46889;37.310;13.582;2022-12-07T12:04:38;29.10;;;5.78;;
61003;SDS011;46889;37.310;13.582;2022-12-07T12:07:25;35.20;;;5.25;;
61003;SDS011;46889;37.310;13.582;2022-12-07T12:09:59;42.25;;;5.97;;
61003;SDS011;46889;37.310;13.582;2022-12-07T12:15:42;29.30;;;5.78;;
61003;SDS011;46889;37.310;13.582;2022-12-07T12:18:31;41.83;;;5.57;;
61003;SDS011;46889;37.310;13.582;2022-12-07T12:21:20;30.42;;;4.97;;
61003;SDS011;46889;37.310;13.582;2022-12-07T12:24:00;27.42;;;4.78;;
61003;SDS011;46889;37.310;13.582;2022-12-07T12:26:35;35.42;;;5.05;;
61003;SDS011;46889;37.310;13.582;2022-12-07T12:29:06;29.67;;;4.63;;
61003;SDS011;46889;37.310;13.582;2022-12-07T12:31:47;34.78;;;5.50;;
61003;SDS011;46889;37.310;13.582;2022-12-07T12:34:31;46.00;;;6.32;;
61003;SDS011;46889;37.310;13.582;2022-12-07T12:37:07;38.08;;;5.53;;
61003;SDS011;46889;37.310;13.582;2022-12-07T12:42:45;36.70;;;5.80;;
61003;SDS011;46889;37.310;13.582;2022-12-07T12:45:22;31.00;;;4.63;;
61003;SDS011;46889;37.310;13.582;2022-12-07T12:47:59;38.88;;;4.82;;
61003;SDS011;46889;37.310;13.582;2022-12-07T12:50:38;32.65;;;5.43;;
61003;SDS011;46889;37.310;13.582;2022-12-07T12:55:50;35.35;;;5.55;;
61003;SDS011;46889;37.310;13.582;2022-12-07T12:58:37;45.28;;;5.57;;
61003;SDS011;46889;37.310;13.582;2022-12-07T13:04:22;43.30;;;6.68;;
61003;SDS011;46889;37.310;13.582;2022-12-07T13:07:48;42.40;;;6.53;;
61003;SDS011;46889;37.310;13.582;2022-12-07T13:10:25;45.33;;;6.82;;
61003;SDS011;46889;37.310;13.582;2022-12-07T13:13:03;41.03;;;6.15;;
61003;SDS011;46889;37.310;13.582;2022-12-07T13:29:13;45.33;;;5.25;;
61003;SDS011;46889;37.310;13.582;2022-12-07T13:37:02;42.45;;;6.13;;
61003;SDS011;46889;37.310;13.582;2022-12-07T13:39:59;53.03;;;6.32;;
61003;SDS011;46889;37.310;13.582;2022-12-07T13:42:44;44.53;;;5.28;;
61003;SDS011;46889;37.310;13.582;2022-12-07T13:45:29;42.25;;;5.85;;
61003;SDS011;46889;37.310;13.582;2022-12-07T13:50:54;39.08;;;5.85;;
61003;SDS011;46889;37.310;13.582;2022-12-07T13:53:21;43.10;;;6.15;;
61003;SDS011;46889;37.310;13.582;2022-12-07T14:00:42;43.42;;;5.90;;
61003;SDS011;46889;37.310;13.582;2022-12-07T14:05:42;40.40;;;5.82;;
61003;SDS011;46889;37.310;13.582;2022-12-07T14:11:09;52.10;;;6.85;;
61003;SDS011;46889;37.310;13.582;2022-12-07T14:15:59;38.20;;;6.05;;
61003;SDS011;46889;37.310;13.582;2022-12-07T14:23:39;50.15;;;6.43;;
61003;SDS011;46889;37.310;13.582;2022-12-07T14:26:13;54.72;;;6.90;;
61003;SDS011;46889;37.310;13.582;2022-12-07T14:28:41;55.50;;;7.55;;
61003;SDS011;46889;37.310;13.582;2022-12-07T14:31:21;56.33;;;8.25;;
61003;SDS011;46889;37.310;13.582;2022-12-07T14:33:52;58.55;;;8.88;;
61003;SDS011;46889;37.310;13.582;2022-12-07T14:36:26;55.35;;;8.57;;
61003;SDS011;46889;37.310;13.582;2022-12-07T14:38:52;62.67;;;9.00;;
61003;SDS011;46889;37.310;13.582;2022-12-07T14:41:21;57.70;;;8.02;;
61003;SDS011;46889;37.310;13.582;2022-12-07T14:44:10;63.67;;;8.18;;
61003;SDS011;46889;37.310;13.582;2022-12-07T14:46:38;54.92;;;8.05;;
61003;SDS011;46889;37.310;13.582;2022-12-07T14:49:04;53.90;;;7.57;;
61003;SDS011;46889;37.310;13.582;2022-12-07T14:51:30;80.90;;;8.15;;
61003;SDS011;46889;37.310;13.582;2022-12-07T14:53:57;59.90;;;8.73;;
61003;SDS011;46889;37.310;13.582;2022-12-07T14:56:23;53.95;;;6.97;;
61003;SDS011;46889;37.310;13.582;2022-12-07T14:58:50;57.47;;;7.82;;
61003;SDS011;46889;37.310;13.582;2022-12-07T15:01:16;57.72;;;7.65;;
61003;SDS011;46889;37.310;13.582;2022-12-07T15:03:45;58.40;;;7.30;;
61003;SDS011;46889;37.310;13.582;2022-12-07T15:06:13;52.47;;;7.25;;
61003;SDS011;46889;37.310;13.582;2022-12-07T15:08:42;73.50;;;8.13;;
61003;SDS011;46889;37.310;13.582;2022-12-07T15:11:11;59.75;;;8.85;;
61003;SDS011;46889;37.310;13.582;2022-12-07T15:13:42;58.20;;;7.13;;
61003;SDS011;46889;37.310;13.582;2022-12-07T15:16:27;57.45;;;7.25;;
61003;SDS011;46889;37.310;13.582;2022-12-07T15:18:53;65.65;;;8.25;;
61003;SDS011;46889;37.310;13.582;2022-12-07T15:21:19;60.88;;;7.45;;
61003;SDS011;46889;37.310;13.582;2022-12-07T15:23:46;54.58;;;7.60;;
61003;SDS011;46889;37.310;13.582;2022-12-07T15:26:12;57.25;;;6.93;;
61003;SDS011;46889;37.310;13.582;2022-12-07T15:28:39;50.75;;;7.30;;
61003;SDS011;46889;37.310;13.582;2022-12-07T15:31:13;51.58;;;6.75;;
61003;SDS011;46889;37.310;13.582;2022-12-07T15:33:40;56.10;;;7.05;;
61003;SDS011;46889;37.310;13.582;2022-12-07T15:38:32;53.85;;;7.03;;
61003;SDS011;46889;37.310;13.582;2022-12-07T15:41:02;42.03;;;6.28;;
61003;SDS011;46889;37.310;13.582;2022-12-07T15:43:31;41.90;;;5.93;;
61003;SDS011;46889;37.310;13.582;2022-12-07T15:46:15;56.78;;;5.57;;
61003;SDS011;46889;37.310;13.582;2022-12-07T15:48:42;46.05;;;6.13;;
61003;SDS011;46889;37.310;13.582;2022-12-07T15:51:10;48.25;;;5.80;;
61003;SDS011;46889;37.310;13.582;2022-12-07T15:53:37;59.58;;;6.47;;
61003;SDS011;46889;37.310;13.582;2022-12-07T15:56:06;50.15;;;6.15;;
61003;SDS011;46889;37.310;13.582;2022-12-07T15:58:33;44.95;;;6.15;;
61003;SDS011;46889;37.310;13.582;2022-12-07T16:01:00;44.53;;;6.47;;
61003;SDS011;46889;37.310;13.582;2022-12-07T16:03:27;45.70;;;6.18;;
61003;SDS011;46889;37.310;13.582;2022-12-07T16:05:55;45.63;;;5.85;;
61003;SDS011;46889;37.310;13.582;2022-12-07T16:08:22;38.28;;;5.00;;
61003;SDS011;46889;37.310;13.582;2022-12-07T16:10:49;43.55;;;5.72;;
61003;SDS011;46889;37.310;13.582;2022-12-07T16:13:15;57.20;;;5.53;;
61003;SDS011;46889;37.310;13.582;2022-12-07T16:15:49;31.63;;;5.80;;
61003;SDS011;46889;37.310;13.582;2022-12-07T16:18:15;45.63;;;5.40;;
61003;SDS011;46889;37.310;13.582;2022-12-07T16:20:41;34.63;;;4.70;;
61003;SDS011;46889;37.310;13.582;2022-12-07T16:23:07;35.08;;;5.38;;
61003;SDS011;46889;37.310;13.582;2022-12-07T16:25:34;33.83;;;5.00;;
61003;SDS011;46889;37.310;13.582;2022-12-07T16:30:27;32.72;;;5.43;;
61003;SDS011;46889;37.310;13.582;2022-12-07T16:32:53;43.07;;;4.73;;
61003;SDS011;46889;37.310;13.582;2022-12-07T16:35:28;39.55;;;4.45;;
61003;SDS011;46889;37.310;13.582;2022-12-07T16:37:57;37.60;;;4.80;;
61003;SDS011;46889;37.310;13.582;2022-12-07T16:40:24;42.63;;;5.10;;
61003;SDS011;46889;37.310;13.582;2022-12-07T16:42:53;34.08;;;4.95;;
61003;SDS011;46889;37.310;13.582;2022-12-07T16:45:21;28.88;;;4.97;;
61003;SDS011;46889;37.310;13.582;2022-12-07T16:47:47;38.17;;;4.93;;
61003;SDS011;46889;37.310;13.582;2022-12-07T16:50:13;33.95;;;5.20;;
61003;SDS011;46889;37.310;13.582;2022-12-07T16:52:40;36.40;;;4.85;;
61003;SDS011;46889;37.310;13.582;2022-12-07T16:55:15;38.00;;;4.53;;
61003;SDS011;46889;37.310;13.582;2022-12-07T16:57:50;28.98;;;4.90;;
61003;SDS011;46889;37.310;13.582;2022-12-07T17:00:16;28.60;;;3.97;;
61003;SDS011;46889;37.310;13.582;2022-12-07T17:02:45;30.90;;;4.82;;
61003;SDS011;46889;37.310;13.582;2022-12-07T17:05:11;38.00;;;4.30;;
61003;SDS011;46889;37.310;13.582;2022-12-07T17:07:37;35.57;;;4.40;;
61003;SDS011;46889;37.310;13.582;2022-12-07T17:10:05;34.53;;;5.55;;
61003;SDS011;46889;37.310;13.582;2022-12-07T17:12:31;38.50;;;5.63;;
61003;SDS011;46889;37.310;13.582;2022-12-07T17:14:59;37.70;;;5.38;;
61003;SDS011;46889;37.310;13.582;2022-12-07T17:17:48;37.10;;;6.35;;
61003;SDS011;46889;37.310;13.582;2022-12-07T17:20:21;34.70;;;6.28;;
61003;SDS011;46889;37.310;13.582;2022-12-07T17:22:50;27.45;;;6.00;;
61003;SDS011;46889;37.310;13.582;2022-12-07T17:25:18;26.88;;;4.95;;
61003;SDS011;46889;37.310;13.582;2022-12-07T17:27:45;20.60;;;4.25;;
61003;SDS011;46889;37.310;13.582;2022-12-07T17:30:12;31.70;;;4.25;;
61003;SDS011;46889;37.310;13.582;2022-12-07T17:32:38;26.15;;;4.00;;
61003;SDS011;46889;37.310;13.582;2022-12-07T17:35:06;30.33;;;4.88;;
61003;SDS011;46889;37.310;13.582;2022-12-07T17:37:32;17.63;;;4.05;;
61003;SDS011;46889;37.310;13.582;2022-12-07T17:39:58;22.63;;;4.43;;
61003;SDS011;46889;37.310;13.582;2022-12-07T17:42:27;23.15;;;4.25;;